sensor_id;sensor_type;location;lat;lon;timestamp;temperature;humidity
36710;DHT22;22694;51.040;3.684;2023-02-15T00:01:31;14.90;69.50
36710;DHT22;22694;51.040;3.684;2023-02-15T00:03:57;14.90;69.50
36710;DHT22;22694;51.040;3.684;2023-02-15T00:06:23;14.80;69.70
36710;DHT22;22694;51.040;3.684;2023-02-15T00:08:48;14.70;69.90
36710;DHT22;22694;51.040;3.684;2023-02-15T00:11:16;14.60;70.10
36710;DHT22;22694;51.040;3.684;2023-02-15T00:14:12;14.60;70.40
36710;DHT22;22694;51.040;3.684;2023-02-15T00:16:39;14.50;70.40
36710;DHT22;22694;51.040;3.684;2023-02-15T00:19:06;14.50;69.90
36710;DHT22;22694;51.040;3.684;2023-02-15T00:21:33;14.60;69.60
36710;DHT22;22694;51.040;3.684;2023-02-15T00:24:00;14.70;69.50
36710;DHT22;22694;51.040;3.684;2023-02-15T00:26:27;14.70;69.50
36710;DHT22;22694;51.040;3.684;2023-02-15T00:28:53;14.70;69.60
36710;DHT22;22694;51.040;3.684;2023-02-15T00:31:19;14.70;69.60
36710;DHT22;22694;51.040;3.684;2023-02-15T00:33:44;14.60;69.70
36710;DHT22;22694;51.040;3.684;2023-02-15T00:36:11;14.50;69.70
36710;DHT22;22694;51.040;3.684;2023-02-15T00:38:37;14.40;70.00
36710;DHT22;22694;51.040;3.684;2023-02-15T00:41:05;14.30;70.20
36710;DHT22;22694;51.040;3.684;2023-02-15T00:43:32;14.30;70.50
36710;DHT22;22694;51.040;3.684;2023-02-15T00:45:58;14.20;70.30
36710;DHT22;22694;51.040;3.684;2023-02-15T00:48:24;14.30;70.20
36710;DHT22;22694;51.040;3.684;2023-02-15T00:50:52;14.40;70.10
36710;DHT22;22694;51.040;3.684;2023-02-15T00:53:19;14.50;69.80
36710;DHT22;22694;51.040;3.684;2023-02-15T00:55:45;14.50;69.40
36710;DHT22;22694;51.040;3.684;2023-02-15T00:58:11;14.50;69.70
36710;DHT22;22694;51.040;3.684;2023-02-15T01:00:38;14.50;69.60
36710;DHT22;22694;51.040;3.684;2023-02-15T01:03:05;14.40;69.80
36710;DHT22;22694;51.040;3.684;2023-02-15T01:05:31;14.30;69.80
36710;DHT22;22694;51.040;3.684;2023-02-15T01:07:58;14.20;70.00
36710;DHT22;22694;51.040;3.684;2023-02-15T01:10:24;14.10;70.30
36710;DHT22;22694;51.040;3.684;2023-02-15T01:12:50;14.10;70.60
36710;DHT22;22694;51.040;3.684;2023-02-15T01:15:16;14.10;70.10
36710;DHT22;22694;51.040;3.684;2023-02-15T01:17:42;14.20;69.80
36710;DHT22;22694;51.040;3.684;2023-02-15T01:20:09;14.20;69.50
36710;DHT22;22694;51.040;3.684;2023-02-15T01:22:35;14.20;69.40
36710;DHT22;22694;51.040;3.684;2023-02-15T01:25:01;14.30;69.60
36710;DHT22;22694;51.040;3.684;2023-02-15T01:27:26;14.20;69.60
36710;DHT22;22694;51.040;3.684;2023-02-15T01:29:52;14.20;69.60
36710;DHT22;22694;51.040;3.684;2023-02-15T01:32:17;14.10;69.70
36710;DHT22;22694;51.040;3.684;2023-02-15T01:34:43;14.00;70.40
36710;DHT22;22694;51.040;3.684;2023-02-15T01:37:09;13.90;70.10
36710;DHT22;22694;51.040;3.684;2023-02-15T01:39:34;13.90;70.40
36710;DHT22;22694;51.040;3.684;2023-02-15T01:42:00;13.90;70.30
36710;DHT22;22694;51.040;3.684;2023-02-15T01:45:02;13.90;69.80
36710;DHT22;22694;51.040;3.684;2023-02-15T01:47:58;14.00;69.40
36710;DHT22;22694;51.040;3.684;2023-02-15T01:52:57;14.00;70.10
36710;DHT22;22694;51.040;3.684;2023-02-15T01:55:27;14.00;69.40
36710;DHT22;22694;51.040;3.684;2023-02-15T01:57:54;14.00;69.60
36710;DHT22;22694;51.040;3.684;2023-02-15T02:00:20;13.90;69.60
36710;DHT22;22694;51.040;3.684;2023-02-15T02:02:49;13.80;69.70
36710;DHT22;22694;51.040;3.684;2023-02-15T02:05:16;13.70;70.00
36710;DHT22;22694;51.040;3.684;2023-02-15T02:07:44;13.70;70.20
36710;DHT22;22694;51.040;3.684;2023-02-15T02:10:15;13.70;70.00
36710;DHT22;22694;51.040;3.684;2023-02-15T02:12:43;13.80;69.70
36710;DHT22;22694;51.040;3.684;2023-02-15T02:15:10;13.80;69.40
36710;DHT22;22694;51.040;3.684;2023-02-15T02:34:07;13.60;70.20
36710;DHT22;22694;51.040;3.684;2023-02-15T02:37:03;13.50;70.00
36710;DHT22;22694;51.040;3.684;2023-02-15T02:40:01;13.60;69.60
36710;DHT22;22694;51.040;3.684;2023-02-15T02:42:42;13.70;69.30
36710;DHT22;22694;51.040;3.684;2023-02-15T02:45:15;13.70;69.10
36710;DHT22;22694;51.040;3.684;2023-02-15T02:47:55;13.70;69.30
36710;DHT22;22694;51.040;3.684;2023-02-15T02:50:25;13.70;69.30
36710;DHT22;22694;51.040;3.684;2023-02-15T02:52:53;13.60;69.40
36710;DHT22;22694;51.040;3.684;2023-02-15T02:55:23;13.60;69.50
36710;DHT22;22694;51.040;3.684;2023-02-15T03:00:38;13.40;70.00
36710;DHT22;22694;51.040;3.684;2023-02-15T03:03:12;13.40;69.80
36710;DHT22;22694;51.040;3.684;2023-02-15T03:05:43;13.50;69.40
36710;DHT22;22694;51.040;3.684;2023-02-15T03:08:11;13.50;69.10
36710;DHT22;22694;51.040;3.684;2023-02-15T03:10:39;13.60;69.00
36710;DHT22;22694;51.040;3.684;2023-02-15T03:13:06;13.60;69.00
36710;DHT22;22694;51.040;3.684;2023-02-15T03:15:38;13.60;69.10
36710;DHT22;22694;51.040;3.684;2023-02-15T03:18:26;13.50;69.10
36710;DHT22;22694;51.040;3.684;2023-02-15T03:20:55;13.50;69.30
36710;DHT22;22694;51.040;3.684;2023-02-15T03:23:25;13.40;69.50
36710;DHT22;22694;51.040;3.684;2023-02-15T03:26:01;13.30;69.80
36710;DHT22;22694;51.040;3.684;2023-02-15T03:28:40;13.30;69.80
36710;DHT22;22694;51.040;3.684;2023-02-15T03:31:08;13.30;69.70
36710;DHT22;22694;51.040;3.684;2023-02-15T03:33:37;13.50;69.40
36710;DHT22;22694;51.040;3.684;2023-02-15T03:36:52;13.50;69.20
36710;DHT22;22694;51.040;3.684;2023-02-15T03:42:13;13.50;69.00
36710;DHT22;22694;51.040;3.684;2023-02-15T03:45:03;13.50;69.00
36710;DHT22;22694;51.040;3.684;2023-02-15T03:47:34;13.40;69.10
36710;DHT22;22694;51.040;3.684;2023-02-15T03:50:08;13.30;69.40
36710;DHT22;22694;51.040;3.684;2023-02-15T03:52:55;13.20;69.70
36710;DHT22;22694;51.040;3.684;2023-02-15T03:55:22;13.20;69.60
36710;DHT22;22694;51.040;3.684;2023-02-15T03:57:48;13.20;69.20
36710;DHT22;22694;51.040;3.684;2023-02-15T04:00:36;13.30;68.80
36710;DHT22;22694;51.040;3.684;2023-02-15T04:03:37;13.40;68.70
36710;DHT22;22694;51.040;3.684;2023-02-15T04:06:04;13.40;68.60
36710;DHT22;22694;51.040;3.684;2023-02-15T04:08:30;13.40;69.00
36710;DHT22;22694;51.040;3.684;2023-02-15T04:11:14;13.30;68.90
36710;DHT22;22694;51.040;3.684;2023-02-15T04:13:40;13.20;68.90
36710;DHT22;22694;51.040;3.684;2023-02-15T04:16:06;13.20;69.20
36710;DHT22;22694;51.040;3.684;2023-02-15T04:18:40;13.10;69.40
36710;DHT22;22694;51.040;3.684;2023-02-15T04:21:25;13.30;76.10
36710;DHT22;22694;51.040;3.684;2023-02-15T04:24:10;13.50;74.30
36710;DHT22;22694;51.040;3.684;2023-02-15T04:26:55;13.60;70.30
36710;DHT22;22694;51.040;3.684;2023-02-15T04:29:24;13.60;69.30
36710;DHT22;22694;51.040;3.684;2023-02-15T04:31:51;13.60;68.90
36710;DHT22;22694;51.040;3.684;2023-02-15T04:34:17;13.50;68.70
36710;DHT22;22694;51.040;3.684;2023-02-15T04:36:43;13.50;69.00
36710;DHT22;22694;51.040;3.684;2023-02-15T04:39:11;13.40;69.40
36710;DHT22;22694;51.040;3.684;2023-02-15T04:41:37;13.40;69.70
36710;DHT22;22694;51.040;3.684;2023-02-15T04:44:03;13.30;70.00
36710;DHT22;22694;51.040;3.684;2023-02-15T04:46:29;13.20;69.50
36710;DHT22;22694;51.040;3.684;2023-02-15T04:48:55;13.20;69.00
36710;DHT22;22694;51.040;3.684;2023-02-15T04:51:21;13.30;68.40
36710;DHT22;22694;51.040;3.684;2023-02-15T04:53:46;13.40;68.20
36710;DHT22;22694;51.040;3.684;2023-02-15T04:56:12;13.40;68.10
36710;DHT22;22694;51.040;3.684;2023-02-15T04:58:37;13.50;68.10
36710;DHT22;22694;51.040;3.684;2023-02-15T05:01:09;13.40;68.10
36710;DHT22;22694;51.040;3.684;2023-02-15T05:03:35;13.40;69.20
36710;DHT22;22694;51.040;3.684;2023-02-15T05:06:01;13.30;69.10
36710;DHT22;22694;51.040;3.684;2023-02-15T05:08:26;13.20;69.40
36710;DHT22;22694;51.040;3.684;2023-02-15T05:10:52;13.20;69.60
36710;DHT22;22694;51.040;3.684;2023-02-15T05:13:18;13.20;68.90
36710;DHT22;22694;51.040;3.684;2023-02-15T05:15:50;13.20;68.40
36710;DHT22;22694;51.040;3.684;2023-02-15T05:18:17;13.30;68.00
36710;DHT22;22694;51.040;3.684;2023-02-15T05:20:43;13.40;67.80
36710;DHT22;22694;51.040;3.684;2023-02-15T05:23:09;13.40;67.80
36710;DHT22;22694;51.040;3.684;2023-02-15T05:25:35;13.40;67.80
36710;DHT22;22694;51.040;3.684;2023-02-15T05:28:19;13.30;68.10
36710;DHT22;22694;51.040;3.684;2023-02-15T05:30:47;13.30;68.90
36710;DHT22;22694;51.040;3.684;2023-02-15T05:33:13;13.20;69.20
36710;DHT22;22694;51.040;3.684;2023-02-15T05:35:38;13.20;69.40
36710;DHT22;22694;51.040;3.684;2023-02-15T05:38:04;13.10;69.50
36710;DHT22;22694;51.040;3.684;2023-02-15T05:40:30;13.20;72.20
36710;DHT22;22694;51.040;3.684;2023-02-15T05:42:56;13.30;70.30
36710;DHT22;22694;51.040;3.684;2023-02-15T05:45:22;13.40;69.50
36710;DHT22;22694;51.040;3.684;2023-02-15T05:47:47;13.50;69.00
36710;DHT22;22694;51.040;3.684;2023-02-15T05:50:13;13.50;68.60
36710;DHT22;22694;51.040;3.684;2023-02-15T05:52:39;13.40;69.00
36710;DHT22;22694;51.040;3.684;2023-02-15T05:55:05;13.30;68.90
36710;DHT22;22694;51.040;3.684;2023-02-15T05:57:31;13.20;68.90
36710;DHT22;22694;51.040;3.684;2023-02-15T05:59:57;13.10;68.90
36710;DHT22;22694;51.040;3.684;2023-02-15T06:02:22;13.00;68.90
36710;DHT22;22694;51.040;3.684;2023-02-15T06:04:48;13.00;68.30
36710;DHT22;22694;51.040;3.684;2023-02-15T06:07:13;13.10;67.80
36710;DHT22;22694;51.040;3.684;2023-02-15T06:09:39;13.10;67.30
36710;DHT22;22694;51.040;3.684;2023-02-15T06:12:05;13.20;67.10
36710;DHT22;22694;51.040;3.684;2023-02-15T06:14:30;13.10;66.90
36710;DHT22;22694;51.040;3.684;2023-02-15T06:16:56;13.10;67.70
36710;DHT22;22694;51.040;3.684;2023-02-15T06:19:22;13.10;68.10
36710;DHT22;22694;51.040;3.684;2023-02-15T06:21:48;13.00;68.20
36710;DHT22;22694;51.040;3.684;2023-02-15T06:24:14;12.90;68.20
36710;DHT22;22694;51.040;3.684;2023-02-15T06:26:40;12.80;68.30
36710;DHT22;22694;51.040;3.684;2023-02-15T06:29:06;12.80;67.90
36710;DHT22;22694;51.040;3.684;2023-02-15T06:31:32;12.90;67.50
36710;DHT22;22694;51.040;3.684;2023-02-15T06:33:58;13.00;67.00
36710;DHT22;22694;51.040;3.684;2023-02-15T06:36:29;13.00;66.60
36710;DHT22;22694;51.040;3.684;2023-02-15T06:38:55;13.00;66.40
36710;DHT22;22694;51.040;3.684;2023-02-15T06:41:21;13.00;66.50
36710;DHT22;22694;51.040;3.684;2023-02-15T06:43:47;13.00;67.60
36710;DHT22;22694;51.040;3.684;2023-02-15T06:46:12;12.90;67.60
36710;DHT22;22694;51.040;3.684;2023-02-15T06:48:38;12.80;67.60
36710;DHT22;22694;51.040;3.684;2023-02-15T06:51:04;12.70;67.70
36710;DHT22;22694;51.040;3.684;2023-02-15T06:53:29;12.70;67.80
36710;DHT22;22694;51.040;3.684;2023-02-15T06:56:06;12.70;67.20
36710;DHT22;22694;51.040;3.684;2023-02-15T06:58:39;12.80;66.70
36710;DHT22;22694;51.040;3.684;2023-02-15T07:01:05;12.90;66.30
36710;DHT22;22694;51.040;3.684;2023-02-15T07:03:31;12.90;66.10
36710;DHT22;22694;51.040;3.684;2023-02-15T07:05:59;12.90;66.00
36710;DHT22;22694;51.040;3.684;2023-02-15T07:08:26;12.80;66.40
36710;DHT22;22694;51.040;3.684;2023-02-15T07:10:52;12.80;67.40
36710;DHT22;22694;51.040;3.684;2023-02-15T07:13:18;12.70;67.40
36710;DHT22;22694;51.040;3.684;2023-02-15T07:15:45;12.70;67.50
36710;DHT22;22694;51.040;3.684;2023-02-15T07:18:11;12.60;67.40
36710;DHT22;22694;51.040;3.684;2023-02-15T07:20:37;12.60;66.90
36710;DHT22;22694;51.040;3.684;2023-02-15T07:23:04;12.70;66.50
36710;DHT22;22694;51.040;3.684;2023-02-15T07:25:30;12.80;66.10
36710;DHT22;22694;51.040;3.684;2023-02-15T07:27:57;12.80;65.80
36710;DHT22;22694;51.040;3.684;2023-02-15T07:30:26;12.80;65.60
36710;DHT22;22694;51.040;3.684;2023-02-15T07:32:58;12.80;65.80
36710;DHT22;22694;51.040;3.684;2023-02-15T07:35:54;12.70;66.80
36710;DHT22;22694;51.040;3.684;2023-02-15T07:38:21;12.70;67.40
36710;DHT22;22694;51.040;3.684;2023-02-15T07:40:47;12.60;67.40
36710;DHT22;22694;51.040;3.684;2023-02-15T07:43:13;12.50;67.10
36710;DHT22;22694;51.040;3.684;2023-02-15T07:45:39;12.60;66.80
36710;DHT22;22694;51.040;3.684;2023-02-15T07:48:05;12.70;66.40
36710;DHT22;22694;51.040;3.684;2023-02-15T07:50:31;12.80;66.00
36710;DHT22;22694;51.040;3.684;2023-02-15T07:52:58;12.80;65.70
36710;DHT22;22694;51.040;3.684;2023-02-15T07:55:24;12.80;65.50
36710;DHT22;22694;51.040;3.684;2023-02-15T07:57:50;12.80;65.60
36710;DHT22;22694;51.040;3.684;2023-02-15T08:00:18;12.70;66.10
36710;DHT22;22694;51.040;3.684;2023-02-15T08:02:50;12.70;66.90
36710;DHT22;22694;51.040;3.684;2023-02-15T08:05:37;12.60;67.20
36710;DHT22;22694;51.040;3.684;2023-02-15T08:08:03;12.50;67.10
36710;DHT22;22694;51.040;3.684;2023-02-15T08:10:29;12.50;66.60
36710;DHT22;22694;51.040;3.684;2023-02-15T08:13:13;12.70;66.30
36710;DHT22;22694;51.040;3.684;2023-02-15T08:15:39;12.80;65.90
36710;DHT22;22694;51.040;3.684;2023-02-15T08:18:04;12.90;66.40
36710;DHT22;22694;51.040;3.684;2023-02-15T08:20:30;13.00;70.90
36710;DHT22;22694;51.040;3.684;2023-02-15T08:22:56;13.20;82.90
36710;DHT22;22694;51.040;3.684;2023-02-15T08:25:21;13.60;77.90
36710;DHT22;22694;51.040;3.684;2023-02-15T08:27:47;13.50;68.80
36710;DHT22;22694;51.040;3.684;2023-02-15T08:30:13;13.30;68.00
36710;DHT22;22694;51.040;3.684;2023-02-15T08:32:39;13.20;67.60
36710;DHT22;22694;51.040;3.684;2023-02-15T08:35:05;13.00;68.30
36710;DHT22;22694;51.040;3.684;2023-02-15T08:37:31;12.80;68.60
36710;DHT22;22694;51.040;3.684;2023-02-15T08:39:56;12.70;68.90
36710;DHT22;22694;51.040;3.684;2023-02-15T08:42:22;12.60;69.00
36710;DHT22;22694;51.040;3.684;2023-02-15T08:44:48;12.50;69.00
36710;DHT22;22694;51.040;3.684;2023-02-15T08:47:15;12.50;69.30
36710;DHT22;22694;51.040;3.684;2023-02-15T08:49:41;12.40;69.40
36710;DHT22;22694;51.040;3.684;2023-02-15T08:52:07;12.30;69.40
36710;DHT22;22694;51.040;3.684;2023-02-15T08:54:33;12.30;69.50
36710;DHT22;22694;51.040;3.684;2023-02-15T08:56:59;12.20;69.50
36710;DHT22;22694;51.040;3.684;2023-02-15T08:59:25;12.10;69.80
36710;DHT22;22694;51.040;3.684;2023-02-15T09:01:53;12.10;69.90
36710;DHT22;22694;51.040;3.684;2023-02-15T09:04:20;12.00;70.00
36710;DHT22;22694;51.040;3.684;2023-02-15T09:06:47;12.00;70.20
36710;DHT22;22694;51.040;3.684;2023-02-15T09:09:14;12.00;70.20
36710;DHT22;22694;51.040;3.684;2023-02-15T09:11:42;11.90;70.30
36710;DHT22;22694;51.040;3.684;2023-02-15T09:14:13;11.90;70.40
36710;DHT22;22694;51.040;3.684;2023-02-15T09:16:40;11.90;70.60
36710;DHT22;22694;51.040;3.684;2023-02-15T09:19:07;11.90;70.80
36710;DHT22;22694;51.040;3.684;2023-02-15T09:21:35;11.80;70.80
36710;DHT22;22694;51.040;3.684;2023-02-15T09:24:04;11.80;70.90
36710;DHT22;22694;51.040;3.684;2023-02-15T09:26:31;11.80;71.10
36710;DHT22;22694;51.040;3.684;2023-02-15T09:28:59;11.80;71.30
36710;DHT22;22694;51.040;3.684;2023-02-15T09:31:36;11.70;71.40
36710;DHT22;22694;51.040;3.684;2023-02-15T09:34:02;11.70;71.60
36710;DHT22;22694;51.040;3.684;2023-02-15T09:36:34;11.70;71.70
36710;DHT22;22694;51.040;3.684;2023-02-15T09:39:13;11.70;71.80
36710;DHT22;22694;51.040;3.684;2023-02-15T09:56:15;11.70;72.20
36710;DHT22;22694;51.040;3.684;2023-02-15T10:12:22;11.90;72.30
36710;DHT22;22694;51.040;3.684;2023-02-15T10:18:19;12.00;72.50
36710;DHT22;22694;51.040;3.684;2023-02-15T10:26:50;12.00;72.50
36710;DHT22;22694;51.040;3.684;2023-02-15T10:32:26;12.10;72.40
36710;DHT22;22694;51.040;3.684;2023-02-15T10:35:01;12.10;72.30
36710;DHT22;22694;51.040;3.684;2023-02-15T10:40:37;12.80;88.10
36710;DHT22;22694;51.040;3.684;2023-02-15T10:43:20;13.20;84.40
36710;DHT22;22694;51.040;3.684;2023-02-15T10:51:02;13.30;74.90
36710;DHT22;22694;51.040;3.684;2023-02-15T10:53:38;13.20;74.40
36710;DHT22;22694;51.040;3.684;2023-02-15T10:59:42;13.10;74.00
36710;DHT22;22694;51.040;3.684;2023-02-15T11:02:02;13.10;73.90
36710;DHT22;22694;51.040;3.684;2023-02-15T11:07:24;13.20;76.80
36710;DHT22;22694;51.040;3.684;2023-02-15T11:12:41;13.20;74.50
36710;DHT22;22694;51.040;3.684;2023-02-15T11:16:20;13.20;74.00
36710;DHT22;22694;51.040;3.684;2023-02-15T11:23:26;13.40;82.10
36710;DHT22;22694;51.040;3.684;2023-02-15T11:26:37;13.60;84.80
36710;DHT22;22694;51.040;3.684;2023-02-15T11:31:21;14.00;88.40
36710;DHT22;22694;51.040;3.684;2023-02-15T11:36:41;14.30;91.00
36710;DHT22;22694;51.040;3.684;2023-02-15T11:39:14;14.50;90.30
36710;DHT22;22694;51.040;3.684;2023-02-15T11:41:47;14.60;90.00
36710;DHT22;22694;51.040;3.684;2023-02-15T11:44:39;14.70;88.70
36710;DHT22;22694;51.040;3.684;2023-02-15T11:47:13;14.90;87.40
36710;DHT22;22694;51.040;3.684;2023-02-15T11:49:39;15.00;86.90
36710;DHT22;22694;51.040;3.684;2023-02-15T11:52:12;15.00;86.20
36710;DHT22;22694;51.040;3.684;2023-02-15T11:54:50;15.10;85.90
36710;DHT22;22694;51.040;3.684;2023-02-15T11:57:33;15.20;85.30
36710;DHT22;22694;51.040;3.684;2023-02-15T12:00:14;15.20;84.60
36710;DHT22;22694;51.040;3.684;2023-02-15T12:02:46;15.30;84.00
36710;DHT22;22694;51.040;3.684;2023-02-15T12:05:16;15.30;83.60
36710;DHT22;22694;51.040;3.684;2023-02-15T12:07:48;15.30;83.40
36710;DHT22;22694;51.040;3.684;2023-02-15T12:10:32;15.40;83.00
36710;DHT22;22694;51.040;3.684;2023-02-15T12:13:14;15.40;82.60
36710;DHT22;22694;51.040;3.684;2023-02-15T12:15:52;15.50;82.40
36710;DHT22;22694;51.040;3.684;2023-02-15T12:18:35;15.50;82.10
36710;DHT22;22694;51.040;3.684;2023-02-15T12:23:33;15.60;81.90
36710;DHT22;22694;51.040;3.684;2023-02-15T12:25:59;15.50;81.80
36710;DHT22;22694;51.040;3.684;2023-02-15T12:28:41;15.40;79.90
36710;DHT22;22694;51.040;3.684;2023-02-15T12:31:20;15.20;78.30
36710;DHT22;22694;51.040;3.684;2023-02-15T12:33:46;15.10;77.60
36710;DHT22;22694;51.040;3.684;2023-02-15T12:36:18;15.00;77.30
36710;DHT22;22694;51.040;3.684;2023-02-15T12:41:37;14.90;77.00
36710;DHT22;22694;51.040;3.684;2023-02-15T12:46:30;14.80;77.00
36710;DHT22;22694;51.040;3.684;2023-02-15T12:49:19;14.80;76.90
36710;DHT22;22694;51.040;3.684;2023-02-15T12:54:34;15.10;79.60
36710;DHT22;22694;51.040;3.684;2023-02-15T12:59:48;14.90;76.80
36710;DHT22;22694;51.040;3.684;2023-02-15T13:02:46;14.90;76.90
36710;DHT22;22694;51.040;3.684;2023-02-15T13:05:18;14.90;77.00
36710;DHT22;22694;51.040;3.684;2023-02-15T13:07:51;14.90;77.20
36710;DHT22;22694;51.040;3.684;2023-02-15T13:12:49;14.90;77.60
36710;DHT22;22694;51.040;3.684;2023-02-15T13:15:28;14.90;77.70
36710;DHT22;22694;51.040;3.684;2023-02-15T13:17:57;14.90;77.80
36710;DHT22;22694;51.040;3.684;2023-02-15T13:20:24;14.90;77.90
36710;DHT22;22694;51.040;3.684;2023-02-15T13:22:56;14.90;77.90
36710;DHT22;22694;51.040;3.684;2023-02-15T13:25:26;14.90;78.00
36710;DHT22;22694;51.040;3.684;2023-02-15T13:27:55;14.90;78.00
36710;DHT22;22694;51.040;3.684;2023-02-15T13:30:36;14.90;78.00
36710;DHT22;22694;51.040;3.684;2023-02-15T13:33:06;15.00;78.00
36710;DHT22;22694;51.040;3.684;2023-02-15T13:41:23;15.00;78.00
36710;DHT22;22694;51.040;3.684;2023-02-15T14:00:22;15.10;77.90
36710;DHT22;22694;51.040;3.684;2023-02-15T14:08:47;15.20;77.90
36710;DHT22;22694;51.040;3.684;2023-02-15T14:11:44;15.20;77.90
36710;DHT22;22694;51.040;3.684;2023-02-15T14:14:44;15.20;77.90
36710;DHT22;22694;51.040;3.684;2023-02-15T14:18:10;15.20;77.90
36710;DHT22;22694;51.040;3.684;2023-02-15T14:26:23;15.70;81.10
36710;DHT22;22694;51.040;3.684;2023-02-15T14:31:57;15.80;79.30
36710;DHT22;22694;51.040;3.684;2023-02-15T14:34:36;15.80;78.40
36710;DHT22;22694;51.040;3.684;2023-02-15T14:37:10;15.70;77.90
36710;DHT22;22694;51.040;3.684;2023-02-15T14:42:39;15.60;77.80
36710;DHT22;22694;51.040;3.684;2023-02-15T14:45:20;15.60;77.10
36710;DHT22;22694;51.040;3.684;2023-02-15T14:55:46;15.50;76.70
36710;DHT22;22694;51.040;3.684;2023-02-15T14:58:12;15.50;76.70
36710;DHT22;22694;51.040;3.684;2023-02-15T15:00:40;15.40;76.60
36710;DHT22;22694;51.040;3.684;2023-02-15T15:03:23;15.40;76.60
36710;DHT22;22694;51.040;3.684;2023-02-15T15:05:53;15.40;76.50
36710;DHT22;22694;51.040;3.684;2023-02-15T15:08:33;15.40;79.10
36710;DHT22;22694;51.040;3.684;2023-02-15T15:13:59;16.00;85.60
36710;DHT22;22694;51.040;3.684;2023-02-15T15:19:04;16.40;86.10
36710;DHT22;22694;51.040;3.684;2023-02-15T15:41:07;16.80;82.80
36710;DHT22;22694;51.040;3.684;2023-02-15T15:49:10;16.80;80.20
36710;DHT22;22694;51.040;3.684;2023-02-15T15:51:40;16.70;80.20
36710;DHT22;22694;51.040;3.684;2023-02-15T15:56:44;16.60;80.10
36710;DHT22;22694;51.040;3.684;2023-02-15T15:59:20;16.60;80.10
36710;DHT22;22694;51.040;3.684;2023-02-15T16:01:47;16.50;80.10
36710;DHT22;22694;51.040;3.684;2023-02-15T16:04:30;16.50;80.10
36710;DHT22;22694;51.040;3.684;2023-02-15T16:06:57;16.40;77.20
36710;DHT22;22694;51.040;3.684;2023-02-15T16:09:26;16.20;71.00
36710;DHT22;22694;51.040;3.684;2023-02-15T16:11:56;16.10;72.20
36710;DHT22;22694;51.040;3.684;2023-02-15T16:14:32;16.00;70.60
36710;DHT22;22694;51.040;3.684;2023-02-15T16:17:02;15.90;69.10
36710;DHT22;22694;51.040;3.684;2023-02-15T16:19:58;16.00;78.40
36710;DHT22;22694;51.040;3.684;2023-02-15T16:22:27;16.30;77.50
36710;DHT22;22694;51.040;3.684;2023-02-15T16:25:07;16.30;75.00
36710;DHT22;22694;51.040;3.684;2023-02-15T16:27:40;16.30;75.60
36710;DHT22;22694;51.040;3.684;2023-02-15T16:30:25;16.40;76.50
36710;DHT22;22694;51.040;3.684;2023-02-15T16:35:35;16.20;75.70
36710;DHT22;22694;51.040;3.684;2023-02-15T16:38:01;15.90;75.50
36710;DHT22;22694;51.040;3.684;2023-02-15T16:43:04;15.60;75.20
36710;DHT22;22694;51.040;3.684;2023-02-15T16:45:31;15.40;75.30
36710;DHT22;22694;51.040;3.684;2023-02-15T16:48:00;15.30;75.50
36710;DHT22;22694;51.040;3.684;2023-02-15T16:50:35;15.20;75.60
36710;DHT22;22694;51.040;3.684;2023-02-15T16:53:02;15.10;75.90
36710;DHT22;22694;51.040;3.684;2023-02-15T16:55:36;15.00;76.10
36710;DHT22;22694;51.040;3.684;2023-02-15T16:58:04;14.90;76.30
36710;DHT22;22694;51.040;3.684;2023-02-15T17:00:36;14.90;76.40
36710;DHT22;22694;51.040;3.684;2023-02-15T17:03:08;14.80;76.60
36710;DHT22;22694;51.040;3.684;2023-02-15T17:05:46;14.80;76.50
36710;DHT22;22694;51.040;3.684;2023-02-15T17:09:26;14.70;76.60
36710;DHT22;22694;51.040;3.684;2023-02-15T17:11:40;14.70;76.60
36710;DHT22;22694;51.040;3.684;2023-02-15T17:16:47;14.50;76.70
36710;DHT22;22694;51.040;3.684;2023-02-15T17:19:40;14.50;76.80
36710;DHT22;22694;51.040;3.684;2023-02-15T17:22:18;14.50;76.90
36710;DHT22;22694;51.040;3.684;2023-02-15T17:24:48;14.60;84.30
36710;DHT22;22694;51.040;3.684;2023-02-15T17:27:23;14.90;85.20
36710;DHT22;22694;51.040;3.684;2023-02-15T17:29:56;15.00;82.50
36710;DHT22;22694;51.040;3.684;2023-02-15T17:32:27;14.90;79.40
36710;DHT22;22694;51.040;3.684;2023-02-15T17:35:21;14.80;77.20
36710;DHT22;22694;51.040;3.684;2023-02-15T17:37:49;14.70;77.60
36710;DHT22;22694;51.040;3.684;2023-02-15T17:40:24;14.50;77.50
36710;DHT22;22694;51.040;3.684;2023-02-15T17:42:50;14.40;77.60
36710;DHT22;22694;51.040;3.684;2023-02-15T17:45:20;14.40;77.80
36710;DHT22;22694;51.040;3.684;2023-02-15T17:47:48;14.30;78.50
36710;DHT22;22694;51.040;3.684;2023-02-15T17:50:25;14.20;78.00
36710;DHT22;22694;51.040;3.684;2023-02-15T17:52:52;14.20;78.00
36710;DHT22;22694;51.040;3.684;2023-02-15T17:55:20;14.10;78.00
36710;DHT22;22694;51.040;3.684;2023-02-15T17:58:09;14.00;77.90
36710;DHT22;22694;51.040;3.684;2023-02-15T18:00:39;14.00;78.00
36710;DHT22;22694;51.040;3.684;2023-02-15T18:03:27;13.90;78.00
36710;DHT22;22694;51.040;3.684;2023-02-15T18:06:12;14.20;86.30
36710;DHT22;22694;51.040;3.684;2023-02-15T18:08:56;14.70;87.50
36710;DHT22;22694;51.040;3.684;2023-02-15T18:11:41;15.00;86.70
36710;DHT22;22694;51.040;3.684;2023-02-15T18:14:11;15.30;85.40
36710;DHT22;22694;51.040;3.684;2023-02-15T18:16:39;15.60;84.20
36710;DHT22;22694;51.040;3.684;2023-02-15T18:19:19;15.70;83.80
36710;DHT22;22694;51.040;3.684;2023-02-15T18:21:45;15.90;82.40
36710;DHT22;22694;51.040;3.684;2023-02-15T18:24:15;15.90;81.40
36710;DHT22;22694;51.040;3.684;2023-02-15T18:26:41;15.90;81.20
36710;DHT22;22694;51.040;3.684;2023-02-15T18:29:07;16.00;81.20
36710;DHT22;22694;51.040;3.684;2023-02-15T18:31:33;16.10;80.50
36710;DHT22;22694;51.040;3.684;2023-02-15T18:33:59;15.90;79.70
36710;DHT22;22694;51.040;3.684;2023-02-15T18:36:31;15.70;78.30
36710;DHT22;22694;51.040;3.684;2023-02-15T18:38:58;15.50;76.50
36710;DHT22;22694;51.040;3.684;2023-02-15T18:41:25;15.30;76.10
36710;DHT22;22694;51.040;3.684;2023-02-15T18:43:51;15.10;76.50
36710;DHT22;22694;51.040;3.684;2023-02-15T18:46:18;14.90;76.70
36710;DHT22;22694;51.040;3.684;2023-02-15T18:48:44;14.80;78.10
36710;DHT22;22694;51.040;3.684;2023-02-15T18:51:21;15.10;84.40
36710;DHT22;22694;51.040;3.684;2023-02-15T18:53:50;15.30;82.60
36710;DHT22;22694;51.040;3.684;2023-02-15T18:56:20;15.30;80.40
36710;DHT22;22694;51.040;3.684;2023-02-15T18:58:46;15.30;78.80
36710;DHT22;22694;51.040;3.684;2023-02-15T19:01:18;15.30;78.30
36710;DHT22;22694;51.040;3.684;2023-02-15T19:03:49;15.40;77.80
36710;DHT22;22694;51.040;3.684;2023-02-15T19:06:20;15.50;77.30
36710;DHT22;22694;51.040;3.684;2023-02-15T19:08:48;15.60;76.60
36710;DHT22;22694;51.040;3.684;2023-02-15T19:11:20;15.60;76.00
36710;DHT22;22694;51.040;3.684;2023-02-15T19:13:47;15.60;75.60